sensor_id;sensor_type;location;lat;lon;timestamp;P1;durP1;ratioP1;P2;durP2;ratioP2
75885;SDS011;64561;44.018;10.144;2023-04-24T00:01:55;8.85;;;4.88;;
75885;SDS011;64561;44.018;10.144;2023-04-24T00:04:22;9.80;;;5.90;;
75885;SDS011;64561;44.018;10.144;2023-04-24T00:06:52;13.02;;;6.15;;
75885;SDS011;64561;44.018;10.144;2023-04-24T00:09:23;9.20;;;6.05;;
75885;SDS011;64561;44.018;10.144;2023-04-24T00:11:50;10.60;;;4.93;;
75885;SDS011;64561;44.018;10.144;2023-04-24T00:14:17;9.32;;;5.20;;
75885;SDS011;64561;44.018;10.144;2023-04-24T00:16:44;9.63;;;5.88;;
75885;SDS011;64561;44.018;10.144;2023-04-24T00:19:11;11.50;;;5.70;;
75885;SDS011;64561;44.018;10.144;2023-04-24T00:21:39;11.52;;;6.20;;
75885;SDS011;64561;44.018;10.144;2023-04-24T00:24:06;8.07;;;5.50;;
75885;SDS011;64561;44.018;10.144;2023-04-24T00:26:35;11.85;;;5.47;;
75885;SDS011;64561;44.018;10.144;2023-04-24T00:29:02;11.35;;;5.50;;
75885;SDS011;64561;44.018;10.144;2023-04-24T00:31:28;11.18;;;6.40;;
75885;SDS011;64561;44.018;10.144;2023-04-24T00:33:55;14.85;;;5.88;;
75885;SDS011;64561;44.018;10.144;2023-04-24T00:36:22;14.02;;;5.85;;
75885;SDS011;64561;44.018;10.144;2023-04-24T00:38:49;13.57;;;5.75;;
75885;SDS011;64561;44.018;10.144;2023-04-24T00:41:16;18.90;;;6.97;;
75885;SDS011;64561;44.018;10.144;2023-04-24T00:43:43;11.48;;;6.22;;
75885;SDS011;64561;44.018;10.144;2023-04-24T00:46:10;11.63;;;5.10;;
75885;SDS011;64561;44.018;10.144;2023-04-24T00:48:41;13.82;;;5.55;;
75885;SDS011;64561;44.018;10.144;2023-04-24T00:51:08;13.88;;;4.93;;
75885;SDS011;64561;44.018;10.144;2023-04-24T00:53:35;15.82;;;5.75;;
75885;SDS011;64561;44.018;10.144;2023-04-24T00:56:02;13.02;;;5.82;;
75885;SDS011;64561;44.018;10.144;2023-04-24T00:58:29;13.88;;;6.15;;
75885;SDS011;64561;44.018;10.144;2023-04-24T01:00:57;14.85;;;5.55;;
75885;SDS011;64561;44.018;10.144;2023-04-24T01:03:26;11.77;;;5.85;;
75885;SDS011;64561;44.018;10.144;2023-04-24T01:05:57;17.20;;;6.03;;
75885;SDS011;64561;44.018;10.144;2023-04-24T01:08:24;12.75;;;5.68;;
75885;SDS011;64561;44.018;10.144;2023-04-24T01:10:52;16.90;;;5.75;;
75885;SDS011;64561;44.018;10.144;2023-04-24T01:13:20;13.93;;;5.00;;
75885;SDS011;64561;44.018;10.144;2023-04-24T01:15:47;14.07;;;5.57;;
75885;SDS011;64561;44.018;10.144;2023-04-24T01:18:15;16.45;;;6.50;;
75885;SDS011;64561;44.018;10.144;2023-04-24T01:20:42;13.23;;;5.50;;
75885;SDS011;64561;44.018;10.144;2023-04-24T01:23:11;13.80;;;5.07;;
75885;SDS011;64561;44.018;10.144;2023-04-24T01:25:38;18.33;;;7.07;;
75885;SDS011;64561;44.018;10.144;2023-04-24T01:28:05;13.55;;;5.00;;
75885;SDS011;64561;44.018;10.144;2023-04-24T01:30:32;11.00;;;5.47;;
75885;SDS011;64561;44.018;10.144;2023-04-24T01:32:59;14.77;;;6.38;;
75885;SDS011;64561;44.018;10.144;2023-04-24T01:35:26;13.73;;;5.43;;
75885;SDS011;64561;44.018;10.144;2023-04-24T01:37:53;12.15;;;5.55;;
75885;SDS011;64561;44.018;10.144;2023-04-24T01:40:20;14.85;;;6.07;;
75885;SDS011;64561;44.018;10.144;2023-04-24T01:42:48;15.45;;;5.45;;
75885;SDS011;64561;44.018;10.144;2023-04-24T01:45:15;16.40;;;6.43;;
75885;SDS011;64561;44.018;10.144;2023-04-24T01:47:42;15.52;;;6.60;;
75885;SDS011;64561;44.018;10.144;2023-04-24T01:50:09;20.27;;;6.70;;
75885;SDS011;64561;44.018;10.144;2023-04-24T01:52:38;13.25;;;5.32;;
75885;SDS011;64561;44.018;10.144;2023-04-24T01:55:05;16.90;;;5.25;;
75885;SDS011;64561;44.018;10.144;2023-04-24T01:57:33;15.50;;;5.53;;
75885;SDS011;64561;44.018;10.144;2023-04-24T02:00:00;18.73;;;8.20;;
75885;SDS011;64561;44.018;10.144;2023-04-24T02:02:27;17.33;;;6.22;;
75885;SDS011;64561;44.018;10.144;2023-04-24T02:04:56;16.73;;;5.32;;
75885;SDS011;64561;44.018;10.144;2023-04-24T02:07:24;19.00;;;6.13;;
75885;SDS011;64561;44.018;10.144;2023-04-24T02:09:50;15.95;;;5.53;;
75885;SDS011;64561;44.018;10.144;2023-04-24T02:12:17;17.42;;;5.55;;
75885;SDS011;64561;44.018;10.144;2023-04-24T02:14:44;12.93;;;5.25;;
75885;SDS011;64561;44.018;10.144;2023-04-24T02:17:11;14.75;;;5.40;;
75885;SDS011;64561;44.018;10.144;2023-04-24T02:19:39;15.05;;;4.85;;
75885;SDS011;64561;44.018;10.144;2023-04-24T02:22:06;10.70;;;5.20;;
75885;SDS011;64561;44.018;10.144;2023-04-24T02:24:33;12.60;;;6.72;;
75885;SDS011;64561;44.018;10.144;2023-04-24T02:27:00;11.45;;;4.85;;
75885;SDS011;64561;44.018;10.144;2023-04-24T02:29:29;13.25;;;4.65;;
75885;SDS011;64561;44.018;10.144;2023-04-24T02:31:56;10.95;;;5.30;;
75885;SDS011;64561;44.018;10.144;2023-04-24T02:34:23;9.77;;;4.78;;
75885;SDS011;64561;44.018;10.144;2023-04-24T02:36:51;12.55;;;5.38;;
75885;SDS011;64561;44.018;10.144;2023-04-24T02:39:20;14.75;;;5.20;;
75885;SDS011;64561;44.018;10.144;2023-04-24T02:41:46;12.93;;;5.00;;
75885;SDS011;64561;44.018;10.144;2023-04-24T02:44:15;16.85;;;5.82;;
75885;SDS011;64561;44.018;10.144;2023-04-24T02:46:43;16.70;;;5.60;;
75885;SDS011;64561;44.018;10.144;2023-04-24T02:49:11;16.30;;;5.28;;
75885;SDS011;64561;44.018;10.144;2023-04-24T02:51:38;13.45;;;5.90;;
75885;SDS011;64561;44.018;10.144;2023-04-24T02:54:07;11.88;;;4.63;;
75885;SDS011;64561;44.018;10.144;2023-04-24T02:56:38;13.95;;;5.40;;
75885;SDS011;64561;44.018;10.144;2023-04-24T02:59:06;17.77;;;6.65;;
75885;SDS011;64561;44.018;10.144;2023-04-24T03:01:33;18.85;;;5.50;;
75885;SDS011;64561;44.018;10.144;2023-04-24T03:04:00;16.05;;;5.03;;
75885;SDS011;64561;44.018;10.144;2023-04-24T03:06:28;14.43;;;6.35;;
75885;SDS011;64561;44.018;10.144;2023-04-24T03:08:55;19.55;;;7.72;;
75885;SDS011;64561;44.018;10.144;2023-04-24T03:11:21;19.23;;;5.97;;
75885;SDS011;64561;44.018;10.144;2023-04-24T03:13:48;10.77;;;5.03;;
75885;SDS011;64561;44.018;10.144;2023-04-24T03:16:15;16.02;;;6.07;;
75885;SDS011;64561;44.018;10.144;2023-04-24T03:18:42;11.15;;;4.78;;
75885;SDS011;64561;44.018;10.144;2023-04-24T03:21:09;14.70;;;5.07;;
75885;SDS011;64561;44.018;10.144;2023-04-24T03:23:35;17.27;;;5.35;;
75885;SDS011;64561;44.018;10.144;2023-04-24T03:26:02;18.20;;;7.05;;
75885;SDS011;64561;44.018;10.144;2023-04-24T03:28:30;15.23;;;4.82;;
75885;SDS011;64561;44.018;10.144;2023-04-24T03:31:02;14.65;;;5.32;;
75885;SDS011;64561;44.018;10.144;2023-04-24T03:33:33;13.27;;;4.55;;
75885;SDS011;64561;44.018;10.144;2023-04-24T03:36:00;14.00;;;5.22;;
75885;SDS011;64561;44.018;10.144;2023-04-24T03:38:35;15.10;;;5.85;;
75885;SDS011;64561;44.018;10.144;2023-04-24T03:41:21;9.20;;;4.90;;
75885;SDS011;64561;44.018;10.144;2023-04-24T03:43:53;17.23;;;5.28;;
75885;SDS011;64561;44.018;10.144;2023-04-24T03:46:20;15.55;;;5.75;;
75885;SDS011;64561;44.018;10.144;2023-04-24T03:48:53;10.82;;;5.63;;
75885;SDS011;64561;44.018;10.144;2023-04-24T03:51:24;17.05;;;5.63;;
75885;SDS011;64561;44.018;10.144;2023-04-24T03:56:25;14.40;;;5.35;;
75885;SDS011;64561;44.018;10.144;2023-04-24T03:58:52;19.35;;;6.75;;
75885;SDS011;64561;44.018;10.144;2023-04-24T04:01:18;22.15;;;6.30;;
75885;SDS011;64561;44.018;10.144;2023-04-24T04:03:56;10.40;;;5.13;;
75885;SDS011;64561;44.018;10.144;2023-04-24T04:06:24;11.45;;;4.55;;
75885;SDS011;64561;44.018;10.144;2023-04-24T04:08:52;18.05;;;5.18;;
75885;SDS011;64561;44.018;10.144;2023-04-24T04:11:19;17.33;;;5.57;;
75885;SDS011;64561;44.018;10.144;2023-04-24T04:13:46;17.13;;;5.25;;
75885;SDS011;64561;44.018;10.144;2023-04-24T04:18:45;12.02;;;4.40;;
75885;SDS011;64561;44.018;10.144;2023-04-24T04:21:12;13.35;;;4.93;;
75885;SDS011;64561;44.018;10.144;2023-04-24T04:23:40;14.07;;;5.47;;
75885;SDS011;64561;44.018;10.144;2023-04-24T04:26:18;14.90;;;4.65;;
75885;SDS011;64561;44.018;10.144;2023-04-24T04:29:12;18.92;;;4.68;;
75885;SDS011;64561;44.018;10.144;2023-04-24T04:31:42;14.38;;;4.38;;
75885;SDS011;64561;44.018;10.144;2023-04-24T04:34:11;14.23;;;4.47;;
75885;SDS011;64561;44.018;10.144;2023-04-24T04:36:40;12.05;;;4.22;;
75885;SDS011;64561;44.018;10.144;2023-04-24T04:39:27;16.48;;;4.05;;
75885;SDS011;64561;44.018;10.144;2023-04-24T04:42:07;15.85;;;3.53;;
75885;SDS011;64561;44.018;10.144;2023-04-24T04:44:38;17.63;;;3.75;;
75885;SDS011;64561;44.018;10.144;2023-04-24T04:47:09;16.58;;;3.25;;
75885;SDS011;64561;44.018;10.144;2023-04-24T04:49:37;12.88;;;2.95;;
75885;SDS011;64561;44.018;10.144;2023-04-24T04:52:11;17.95;;;3.55;;
75885;SDS011;64561;44.018;10.144;2023-04-24T04:54:38;15.75;;;3.40;;
75885;SDS011;64561;44.018;10.144;2023-04-24T04:57:05;12.40;;;4.20;;
75885;SDS011;64561;44.018;10.144;2023-04-24T04:59:32;9.45;;;2.67;;
75885;SDS011;64561;44.018;10.144;2023-04-24T05:02:04;12.50;;;3.13;;
75885;SDS011;64561;44.018;10.144;2023-04-24T05:04:31;22.45;;;3.33;;
75885;SDS011;64561;44.018;10.144;2023-04-24T05:06:59;11.23;;;2.97;;
75885;SDS011;64561;44.018;10.144;2023-04-24T05:09:28;14.60;;;3.42;;
75885;SDS011;64561;44.018;10.144;2023-04-24T05:12:00;13.02;;;2.72;;
75885;SDS011;64561;44.018;10.144;2023-04-24T05:14:32;13.75;;;3.40;;
75885;SDS011;64561;44.018;10.144;2023-04-24T05:16:59;14.00;;;3.42;;
75885;SDS011;64561;44.018;10.144;2023-04-24T05:19:28;10.15;;;2.67;;
75885;SDS011;64561;44.018;10.144;2023-04-24T05:21:55;11.75;;;2.33;;
75885;SDS011;64561;44.018;10.144;2023-04-24T05:24:22;7.38;;;2.08;;
75885;SDS011;64561;44.018;10.144;2023-04-24T05:27:07;13.98;;;3.30;;
75885;SDS011;64561;44.018;10.144;2023-04-24T05:29:39;12.82;;;2.92;;
75885;SDS011;64561;44.018;10.144;2023-04-24T05:32:07;15.07;;;3.25;;
75885;SDS011;64561;44.018;10.144;2023-04-24T05:34:34;18.33;;;4.20;;
75885;SDS011;64561;44.018;10.144;2023-04-24T05:37:01;11.05;;;2.13;;
75885;SDS011;64561;44.018;10.144;2023-04-24T05:39:29;11.15;;;2.75;;
75885;SDS011;64561;44.018;10.144;2023-04-24T05:41:56;8.38;;;2.20;;
75885;SDS011;64561;44.018;10.144;2023-04-24T05:44:24;10.43;;;2.78;;
75885;SDS011;64561;44.018;10.144;2023-04-24T05:46:52;13.48;;;3.17;;
75885;SDS011;64561;44.018;10.144;2023-04-24T05:49:19;9.55;;;3.53;;
75885;SDS011;64561;44.018;10.144;2023-04-24T05:51:47;9.95;;;2.40;;
75885;SDS011;64561;44.018;10.144;2023-04-24T05:54:16;10.70;;;2.75;;
75885;SDS011;64561;44.018;10.144;2023-04-24T05:56:42;12.32;;;3.08;;
75885;SDS011;64561;44.018;10.144;2023-04-24T06:01:47;12.73;;;2.47;;
75885;SDS011;64561;44.018;10.144;2023-04-24T06:04:19;11.23;;;2.30;;
75885;SDS011;64561;44.018;10.144;2023-04-24T06:06:46;7.20;;;2.20;;
75885;SDS011;64561;44.018;10.144;2023-04-24T06:09:17;12.05;;;2.92;;
75885;SDS011;64561;44.018;10.144;2023-04-24T06:11:44;13.13;;;2.47;;
75885;SDS011;64561;44.018;10.144;2023-04-24T06:14:13;15.18;;;2.83;;
75885;SDS011;64561;44.018;10.144;2023-04-24T06:17:12;11.80;;;2.42;;
75885;SDS011;64561;44.018;10.144;2023-04-24T06:19:40;9.55;;;1.90;;
75885;SDS011;64561;44.018;10.144;2023-04-24T06:22:07;7.07;;;2.10;;
75885;SDS011;64561;44.018;10.144;2023-04-24T06:24:36;13.27;;;2.78;;
75885;SDS011;64561;44.018;10.144;2023-04-24T06:27:03;12.73;;;2.35;;
75885;SDS011;64561;44.018;10.144;2023-04-24T06:29:30;5.50;;;2.15;;
75885;SDS011;64561;44.018;10.144;2023-04-24T06:31:58;11.35;;;2.20;;
75885;SDS011;64561;44.018;10.144;2023-04-24T06:34:25;8.07;;;2.50;;
75885;SDS011;64561;44.018;10.144;2023-04-24T06:36:52;9.48;;;2.17;;
75885;SDS011;64561;44.018;10.144;2023-04-24T06:39:19;10.13;;;2.60;;
75885;SDS011;64561;44.018;10.144;2023-04-24T06:41:45;8.48;;;2.30;;
75885;SDS011;64561;44.018;10.144;2023-04-24T06:44:18;11.13;;;2.75;;
75885;SDS011;64561;44.018;10.144;2023-04-24T06:46:45;6.40;;;2.00;;
75885;SDS011;64561;44.018;10.144;2023-04-24T06:49:12;8.90;;;2.45;;
75885;SDS011;64561;44.018;10.144;2023-04-24T06:51:42;12.98;;;3.15;;
75885;SDS011;64561;44.018;10.144;2023-04-24T06:54:09;9.45;;;2.65;;
75885;SDS011;64561;44.018;10.144;2023-04-24T06:56:36;6.93;;;2.58;;
75885;SDS011;64561;44.018;10.144;2023-04-24T06:59:03;9.85;;;2.72;;
75885;SDS011;64561;44.018;10.144;2023-04-24T07:01:30;9.02;;;2.17;;
75885;SDS011;64561;44.018;10.144;2023-04-24T07:03:57;9.70;;;2.35;;
75885;SDS011;64561;44.018;10.144;2023-04-24T07:06:24;5.70;;;1.55;;
75885;SDS011;64561;44.018;10.144;2023-04-24T07:08:53;7.93;;;2.35;;
75885;SDS011;64561;44.018;10.144;2023-04-24T07:11:21;9.52;;;1.90;;
75885;SDS011;64561;44.018;10.144;2023-04-24T07:13:48;10.15;;;2.00;;
75885;SDS011;64561;44.018;10.144;2023-04-24T07:16:15;7.40;;;2.13;;
75885;SDS011;64561;44.018;10.144;2023-04-24T07:18:42;10.52;;;2.78;;
75885;SDS011;64561;44.018;10.144;2023-04-24T07:21:09;14.50;;;2.60;;
75885;SDS011;64561;44.018;10.144;2023-04-24T07:23:36;8.95;;;3.03;;
75885;SDS011;64561;44.018;10.144;2023-04-24T07:26:03;11.40;;;2.72;;
75885;SDS011;64561;44.018;10.144;2023-04-24T07:28:30;10.80;;;2.72;;
75885;SDS011;64561;44.018;10.144;2023-04-24T07:30:57;10.30;;;2.63;;
75885;SDS011;64561;44.018;10.144;2023-04-24T07:33:26;6.60;;;2.00;;
75885;SDS011;64561;44.018;10.144;2023-04-24T07:35:53;5.07;;;1.63;;
75885;SDS011;64561;44.018;10.144;2023-04-24T07:38:20;12.32;;;2.10;;
75885;SDS011;64561;44.018;10.144;2023-04-24T07:40:48;11.75;;;3.03;;
75885;SDS011;64561;44.018;10.144;2023-04-24T07:43:15;9.55;;;2.42;;
75885;SDS011;64561;44.018;10.144;2023-04-24T07:45:42;8.68;;;2.30;;
75885;SDS011;64561;44.018;10.144;2023-04-24T07:48:09;10.25;;;2.67;;
75885;SDS011;64561;44.018;10.144;2023-04-24T07:50:37;8.40;;;2.17;;
75885;SDS011;64561;44.018;10.144;2023-04-24T07:53:04;10.18;;;2.40;;
75885;SDS011;64561;44.018;10.144;2023-04-24T07:55:30;5.78;;;2.03;;
75885;SDS011;64561;44.018;10.144;2023-04-24T07:57:57;5.07;;;1.85;;
75885;SDS011;64561;44.018;10.144;2023-04-24T08:00:24;11.60;;;2.42;;
75885;SDS011;64561;44.018;10.144;2023-04-24T08:02:51;8.57;;;2.75;;
75885;SDS011;64561;44.018;10.144;2023-04-24T08:05:18;8.27;;;1.92;;
75885;SDS011;64561;44.018;10.144;2023-04-24T08:07:45;12.15;;;2.50;;
75885;SDS011;64561;44.018;10.144;2023-04-24T08:10:15;8.10;;;2.58;;
75885;SDS011;64561;44.018;10.144;2023-04-24T08:12:41;11.85;;;3.13;;
75885;SDS011;64561;44.018;10.144;2023-04-24T08:15:08;9.35;;;2.63;;
75885;SDS011;64561;44.018;10.144;2023-04-24T08:17:35;20.10;;;2.80;;
75885;SDS011;64561;44.018;10.144;2023-04-24T08:20:03;12.93;;;2.53;;
75885;SDS011;64561;44.018;10.144;2023-04-24T08:22:31;16.58;;;2.55;;
75885;SDS011;64561;44.018;10.144;2023-04-24T08:24:59;12.05;;;2.92;;
75885;SDS011;64561;44.018;10.144;2023-04-24T08:27:26;9.73;;;2.22;;
75885;SDS011;64561;44.018;10.144;2023-04-24T08:29:53;12.52;;;2.28;;
75885;SDS011;64561;44.018;10.144;2023-04-24T08:32:21;12.43;;;3.28;;
75885;SDS011;64561;44.018;10.144;2023-04-24T08:34:48;15.52;;;2.95;;
75885;SDS011;64561;44.018;10.144;2023-04-24T08:37:15;20.25;;;4.03;;
75885;SDS011;64561;44.018;10.144;2023-04-24T08:39:42;15.23;;;2.78;;
75885;SDS011;64561;44.018;10.144;2023-04-24T08:42:09;10.90;;;2.60;;
75885;SDS011;64561;44.018;10.144;2023-04-24T08:44:40;13.82;;;2.58;;
75885;SDS011;64561;44.018;10.144;2023-04-24T08:47:07;10.52;;;2.33;;
75885;SDS011;64561;44.018;10.144;2023-04-24T08:49:35;6.97;;;2.53;;
75885;SDS011;64561;44.018;10.144;2023-04-24T08:52:06;10.38;;;2.95;;
75885;SDS011;64561;44.018;10.144;2023-04-24T08:54:34;12.80;;;2.50;;
75885;SDS011;64561;44.018;10.144;2023-04-24T08:57:03;10.10;;;2.00;;
75885;SDS011;64561;44.018;10.144;2023-04-24T08:59:30;12.50;;;2.85;;
75885;SDS011;64561;44.018;10.144;2023-04-24T09:01:58;8.48;;;2.53;;
75885;SDS011;64561;44.018;10.144;2023-04-24T09:04:25;7.05;;;2.35;;
75885;SDS011;64561;44.018;10.144;2023-04-24T09:06:56;8.73;;;2.45;;
75885;SDS011;64561;44.018;10.144;2023-04-24T09:09:24;8.35;;;2.60;;
75885;SDS011;64561;44.018;10.144;2023-04-24T09:11:52;11.27;;;2.63;;
75885;SDS011;64561;44.018;10.144;2023-04-24T09:14:21;9.73;;;2.28;;
75885;SDS011;64561;44.018;10.144;2023-04-24T09:16:50;15.15;;;3.75;;
75885;SDS011;64561;44.018;10.144;2023-04-24T09:19:17;12.32;;;2.60;;
75885;SDS011;64561;44.018;10.144;2023-04-24T09:21:47;14.82;;;2.97;;
75885;SDS011;64561;44.018;10.144;2023-04-24T09:24:16;10.23;;;2.92;;
75885;SDS011;64561;44.018;10.144;2023-04-24T09:26:44;9.30;;;2.20;;
75885;SDS011;64561;44.018;10.144;2023-04-24T09:29:15;12.82;;;2.83;;
75885;SDS011;64561;44.018;10.144;2023-04-24T09:31:43;11.73;;;2.40;;
75885;SDS011;64561;44.018;10.144;2023-04-24T09:34:13;8.05;;;2.50;;
75885;SDS011;64561;44.018;10.144;2023-04-24T09:36:43;13.43;;;3.88;;
75885;SDS011;64561;44.018;10.144;2023-04-24T09:39:11;11.85;;;2.55;;
75885;SDS011;64561;44.018;10.144;2023-04-24T09:44:17;7.10;;;2.55;;
75885;SDS011;64561;44.018;10.144;2023-04-24T09:46:45;9.98;;;2.55;;
75885;SDS011;64561;44.018;10.144;2023-04-24T09:49:16;11.50;;;2.95;;
75885;SDS011;64561;44.018;10.144;2023-04-24T09:51:49;12.23;;;2.45;;
75885;SDS011;64561;44.018;10.144;2023-04-24T09:54:19;10.82;;;3.00;;
75885;SDS011;64561;44.018;10.144;2023-04-24T09:56:49;9.25;;;2.75;;
75885;SDS011;64561;44.018;10.144;2023-04-24T09:59:17;5.30;;;2.30;;
75885;SDS011;64561;44.018;10.144;2023-04-24T10:01:46;13.20;;;2.85;;
75885;SDS011;64561;44.018;10.144;2023-04-24T10:04:22;11.05;;;2.70;;
75885;SDS011;64561;44.018;10.144;2023-04-24T10:06:52;9.82;;;3.05;;
75885;SDS011;64561;44.018;10.144;2023-04-24T10:09:22;6.95;;;2.28;;
75885;SDS011;64561;44.018;10.144;2023-04-24T10:11:52;11.35;;;2.78;;
75885;SDS011;64561;44.018;10.144;2023-04-24T10:14:21;12.52;;;2.90;;
75885;SDS011;64561;44.018;10.144;2023-04-24T10:16:50;13.77;;;2.60;;
75885;SDS011;64561;44.018;10.144;2023-04-24T10:19:18;11.65;;;2.72;;
75885;SDS011;64561;44.018;10.144;2023-04-24T10:21:46;9.25;;;2.38;;
75885;SDS011;64561;44.018;10.144;2023-04-24T10:24:14;13.32;;;1.98;;
75885;SDS011;64561;44.018;10.144;2023-04-24T10:26:42;11.45;;;2.65;;
75885;SDS011;64561;44.018;10.144;2023-04-24T10:29:11;7.60;;;2.58;;
75885;SDS011;64561;44.018;10.144;2023-04-24T10:31:39;9.20;;;1.98;;
75885;SDS011;64561;44.018;10.144;2023-04-24T10:34:07;7.18;;;2.17;;
75885;SDS011;64561;44.018;10.144;2023-04-24T10:36:36;10.23;;;2.50;;
75885;SDS011;64561;44.018;10.144;2023-04-24T10:39:08;12.75;;;2.63;;
75885;SDS011;64561;44.018;10.144;2023-04-24T10:41:38;11.68;;;2.65;;
75885;SDS011;64561;44.018;10.144;2023-04-24T10:44:12;8.80;;;2.13;;
75885;SDS011;64561;44.018;10.144;2023-04-24T10:46:43;8.80;;;2.15;;
75885;SDS011;64561;44.018;10.144;2023-04-24T10:49:11;12.43;;;2.25;;
75885;SDS011;64561;44.018;10.144;2023-04-24T10:51:45;9.88;;;2.33;;
75885;SDS011;64561;44.018;10.144;2023-04-24T10:54:24;11.10;;;2.40;;
75885;SDS011;64561;44.018;10.144;2023-04-24T10:59:39;11.38;;;2.53;;
75885;SDS011;64561;44.018;10.144;2023-04-24T11:02:07;9.88;;;2.58;;
75885;SDS011;64561;44.018;10.144;2023-04-24T11:04:35;7.57;;;2.10;;
75885;SDS011;64561;44.018;10.144;2023-04-24T11:07:03;8.77;;;2.20;;
75885;SDS011;64561;44.018;10.144;2023-04-24T11:09:30;9.93;;;2.65;;
75885;SDS011;64561;44.018;10.144;2023-04-24T11:15:21;13.63;;;2.60;;
75885;SDS011;64561;44.018;10.144;2023-04-24T11:17:33;7.45;;;2.10;;
75885;SDS011;64561;44.018;10.144;2023-04-24T11:20:07;8.25;;;2.63;;
75885;SDS011;64561;44.018;10.144;2023-04-24T11:22:52;5.90;;;2.10;;
75885;SDS011;64561;44.018;10.144;2023-04-24T11:25:24;10.90;;;2.58;;
75885;SDS011;64561;44.018;10.144;2023-04-24T11:27:52;10.73;;;2.53;;
75885;SDS011;64561;44.018;10.144;2023-04-24T11:30:31;11.10;;;3.03;;
75885;SDS011;64561;44.018;10.144;2023-04-24T11:33:03;7.63;;;2.30;;
75885;SDS011;64561;44.018;10.144;2023-04-24T11:35:35;9.85;;;2.58;;
75885;SDS011;64561;44.018;10.144;2023-04-24T11:38:05;8.23;;;2.17;;
75885;SDS011;64561;44.018;10.144;2023-04-24T11:40:49;9.40;;;2.25;;
75885;SDS011;64561;44.018;10.144;2023-04-24T11:43:16;8.85;;;2.33;;
75885;SDS011;64561;44.018;10.144;2023-04-24T11:45:48;7.13;;;2.45;;
75885;SDS011;64561;44.018;10.144;2023-04-24T11:48:19;9.35;;;2.92;;
75885;SDS011;64561;44.018;10.144;2023-04-24T11:50:52;8.43;;;2.58;;
75885;SDS011;64561;44.018;10.144;2023-04-24T11:53:20;16.27;;;3.15;;
75885;SDS011;64561;44.018;10.144;2023-04-24T11:55:48;12.48;;;2.97;;
75885;SDS011;64561;44.018;10.144;2023-04-24T11:58:15;9.27;;;3.00;;
75885;SDS011;64561;44.018;10.144;2023-04-24T12:00:54;10.50;;;3.38;;
75885;SDS011;64561;44.018;10.144;2023-04-24T12:03:23;8.27;;;3.40;;
75885;SDS011;64561;44.018;10.144;2023-04-24T12:05:50;11.38;;;3.72;;
75885;SDS011;64561;44.018;10.144;2023-04-24T12:08:27;8.90;;;3.53;;
75885;SDS011;64561;44.018;10.144;2023-04-24T12:10:55;7.60;;;3.38;;
75885;SDS011;64561;44.018;10.144;2023-04-24T12:13:21;8.93;;;3.00;;
75885;SDS011;64561;44.018;10.144;2023-04-24T12:15:50;5.70;;;3.28;;
75885;SDS011;64561;44.018;10.144;2023-04-24T12:18:17;11.85;;;3.00;;
75885;SDS011;64561;44.018;10.144;2023-04-24T12:20:44;6.18;;;2.67;;
75885;SDS011;64561;44.018;10.144;2023-04-24T12:23:10;8.35;;;5.30;;
75885;SDS011;64561;44.018;10.144;2023-04-24T12:25:38;9.23;;;4.43;;
75885;SDS011;64561;44.018;10.144;2023-04-24T12:30:38;9.43;;;4.50;;
75885;SDS011;64561;44.018;10.144;2023-04-24T12:33:11;15.73;;;3.60;;
75885;SDS011;64561;44.018;10.144;2023-04-24T12:35:39;17.48;;;7.28;;
75885;SDS011;64561;44.018;10.144;2023-04-24T12:38:13;13.13;;;3.83;;
75885;SDS011;64561;44.018;10.144;2023-04-24T12:40:42;19.65;;;3.17;;
75885;SDS011;64561;44.018;10.144;2023-04-24T12:43:19;6.82;;;3.25;;
75885;SDS011;64561;44.018;10.144;2023-04-24T12:45:49;9.25;;;3.10;;
75885;SDS011;64561;44.018;10.144;2023-04-24T12:48:16;6.90;;;2.85;;
75885;SDS011;64561;44.018;10.144;2023-04-24T12:50:43;19.17;;;3.92;;
75885;SDS011;64561;44.018;10.144;2023-04-24T12:53:12;11.18;;;3.75;;
75885;SDS011;64561;44.018;10.144;2023-04-24T12:55:39;10.77;;;2.80;;
75885;SDS011;64561;44.018;10.144;2023-04-24T12:58:07;10.50;;;3.95;;
75885;SDS011;64561;44.018;10.144;2023-04-24T13:00:34;7.65;;;2.70;;
75885;SDS011;64561;44.018;10.144;2023-04-24T13:03:01;7.85;;;2.90;;
75885;SDS011;64561;44.018;10.144;2023-04-24T13:05:29;9.85;;;2.97;;
75885;SDS011;64561;44.018;10.144;2023-04-24T13:07:57;8.40;;;2.20;;
75885;SDS011;64561;44.018;10.144;2023-04-24T13:10:24;6.93;;;2.10;;
75885;SDS011;64561;44.018;10.144;2023-04-24T13:12:54;8.27;;;2.10;;
75885;SDS011;64561;44.018;10.144;2023-04-24T13:15:23;7.13;;;1.92;;
75885;SDS011;64561;44.018;10.144;2023-04-24T13:17:51;10.52;;;1.88;;
75885;SDS011;64561;44.018;10.144;2023-04-24T13:20:18;10.07;;;2.17;;
75885;SDS011;64561;44.018;10.144;2023-04-24T13:22:45;8.88;;;1.92;;
75885;SDS011;64561;44.018;10.144;2023-04-24T13:25:11;11.25;;;2.10;;
75885;SDS011;64561;44.018;10.144;2023-04-24T13:27:38;10.15;;;1.80;;
75885;SDS011;64561;44.018;10.144;2023-04-24T13:30:06;8.05;;;2.20;;
75885;SDS011;64561;44.018;10.144;2023-04-24T13:32:33;11.82;;;2.42;;
75885;SDS011;64561;44.018;10.144;2023-04-24T13:35:01;7.95;;;2.20;;
75885;SDS011;64561;44.018;10.144;2023-04-24T13:37:28;11.75;;;2.70;;
75885;SDS011;64561;44.018;10.144;2023-04-24T13:39:55;11.27;;;2.78;;
75885;SDS011;64561;44.018;10.144;2023-04-24T13:42:22;11.70;;;2.53;;
75885;SDS011;64561;44.018;10.144;2023-04-24T13:44:49;11.80;;;2.00;;
75885;SDS011;64561;44.018;10.144;2023-04-24T13:47:17;8.05;;;2.25;;
75885;SDS011;64561;44.018;10.144;2023-04-24T13:49:44;7.55;;;2.17;;
75885;SDS011;64561;44.018;10.144;2023-04-24T13:52:11;8.30;;;2.45;;
75885;SDS011;64561;44.018;10.144;2023-04-24T13:54:38;7.60;;;2.05;;
75885;SDS011;64561;44.018;10.144;2023-04-24T13:57:05;10.02;;;1.98;;
75885;SDS011;64561;44.018;10.144;2023-04-24T13:59:31;8.55;;;2.47;;
75885;SDS011;64561;44.018;10.144;2023-04-24T14:01:58;8.10;;;2.00;;
75885;SDS011;64561;44.018;10.144;2023-04-24T14:04:25;6.72;;;2.33;;
75885;SDS011;64561;44.018;10.144;2023-04-24T14:06:53;12.40;;;2.42;;
75885;SDS011;64561;44.018;10.144;2023-04-24T14:09:19;11.48;;;3.10;;
75885;SDS011;64561;44.018;10.144;2023-04-24T14:11:46;9.32;;;2.70;;
75885;SDS011;64561;44.018;10.144;2023-04-24T14:14:13;8.13;;;2.17;;
75885;SDS011;64561;44.018;10.144;2023-04-24T14:16:40;6.50;;;2.15;;
75885;SDS011;64561;44.018;10.144;2023-04-24T14:19:06;7.20;;;1.95;;
75885;SDS011;64561;44.018;10.144;2023-04-24T14:21:33;9.38;;;2.20;;
75885;SDS011;64561;44.018;10.144;2023-04-24T14:24:00;8.38;;;2.20;;
75885;SDS011;64561;44.018;10.144;2023-04-24T14:26:28;17.88;;;2.60;;
75885;SDS011;64561;44.018;10.144;2023-04-24T14:28:55;8.88;;;2.55;;
75885;SDS011;64561;44.018;10.144;2023-04-24T14:31:32;14.10;;;2.80;;
75885;SDS011;64561;44.018;10.144;2023-04-24T14:34:01;9.52;;;2.00;;
75885;SDS011;64561;44.018;10.144;2023-04-24T14:36:27;5.85;;;1.80;;
75885;SDS011;64561;44.018;10.144;2023-04-24T14:38:54;12.27;;;2.53;;
75885;SDS011;64561;44.018;10.144;2023-04-24T14:41:21;10.82;;;2.10;;
75885;SDS011;64561;44.018;10.144;2023-04-24T14:43:48;11.95;;;2.40;;
75885;SDS011;64561;44.018;10.144;2023-04-24T14:46:17;12.65;;;3.25;;
75885;SDS011;64561;44.018;10.144;2023-04-24T14:48:43;11.20;;;2.97;;
75885;SDS011;64561;44.018;10.144;2023-04-24T14:51:10;12.98;;;2.35;;
75885;SDS011;64561;44.018;10.144;2023-04-24T14:53:37;14.55;;;2.65;;